首页
METAR-TAF:

METAR-TAF

机场 :

奥珀卢萨斯, 路易斯安那州, 美国

纬度: 30-33-30N, 经度: 092-05-58W, 海拔: 23米

当前天气观测

该预报发布于21分钟前的03:35 UTC
风速7节,风向南转南东,在之间变化
温度 14°C
湿度 100%
气压 1017 hPa
能見度: 11.3公里
阴天层高于200英尺

METAR: KOPL 170335Z AUTO 15007KT 100V170 7SM OVC002 14/14 A3002 RMK AO2 T01420137

时间: 21:56 (03:56 UTC)


TAF: 丢失

超过4000个机场的气象观测和天气预报(METAR&TAF报告)。

可查询的气象台以黄色和红色小点在地图上表示。

将鼠标移到小点上方,可查看气象台名称。

然后点击查看天气观测和预报。

如需切换地图:点击带黑十字的绿色按钮放大地图;点击带横线的绿色按钮缩小地图;或者点击绿色箭头查看邻近地区的地图。


METAR-TAF: